Aviation Digital Data Service (ADDS)

Output produced by METARs form (1423 UTC 20 December 2014)
found at http://aviationweather.gov/adds/metars/
 
KARA 201320Z 2013/2112 02012KT P6SM OVC007 
     FM201500 03012KT P6SM OVC012 
     FM201800 03011KT P6SM BKN025 
     FM202200 03009KT P6SM SCT050